Terminal Aerodrome Forecast
Issued by NWS

Home | Current Version | Previous Version | Text Only | Print | Product List | Glossary Off
Versions: 1 2 3 4 5 6 7 8 9 10 11 12 13 14 15

000
FTUS43 KTOP 202339
TAFFOE
TAF
KFOE 202339Z 2100/2124 22013KT P6SM SCT150
     FM210200 23010KT P6SM SCT150 WS015/20045KT
     FM211100 33010KT P6SM OVC100
     FM211600 35018G27KT P6SM SCT080=

USA.gov is the U.S. government's official web portal to all federal, state and local government web resources and services.